createdAt,value
2023-03-15T00:00:55.711Z,1.80
2023-03-15T00:06:01.515Z,2.45
2023-03-15T00:11:04.387Z,2.05
2023-03-15T00:16:07.336Z,2.67
2023-03-15T00:21:10.231Z,2.05
2023-03-15T00:26:13.151Z,2.13
2023-03-15T00:31:18.004Z,1.80
2023-03-15T00:36:24.042Z,2.20
2023-03-15T00:41:27.533Z,1.80
2023-03-15T00:46:32.654Z,2.08
2023-03-15T00:51:37.794Z,2.17
2023-03-15T00:56:41.370Z,2.15
2023-03-15T01:01:45.306Z,2.22
2023-03-15T01:06:48.343Z,2.67
2023-03-15T01:11:52.063Z,2.58
2023-03-15T01:16:54.856Z,2.08
2023-03-15T01:21:57.676Z,1.83
2023-03-15T01:27:00.495Z,1.90
2023-03-15T01:32:03.433Z,2.10
2023-03-15T01:37:06.824Z,1.75
2023-03-15T01:42:15.964Z,1.85
2023-03-15T01:47:18.950Z,1.88
2023-03-15T01:52:24.862Z,2.00
2023-03-15T01:57:37.906Z,1.83
2023-03-15T02:02:58.329Z,2.17
2023-03-15T02:08:07.773Z,1.92
2023-03-15T02:13:18.971Z,1.85
2023-03-15T02:18:24.200Z,1.70
2023-03-15T02:23:27.932Z,1.90
2023-03-15T02:28:31.598Z,1.95
2023-03-15T02:33:37.028Z,2.30
2023-03-15T02:38:40.248Z,2.30
2023-03-15T02:43:43.507Z,1.80
2023-03-15T02:48:47.442Z,1.83
2023-03-15T02:53:50.517Z,2.08
2023-03-15T02:58:53.356Z,1.83
2023-03-15T03:03:56.277Z,3.10
2023-03-15T03:09:00.388Z,1.98
2023-03-15T03:14:03.664Z,2.35
2023-03-15T03:19:09.802Z,2.08
2023-03-15T03:24:16.568Z,2.40
2023-03-15T03:29:19.681Z,2.60
2023-03-15T03:34:25.065Z,2.22
2023-03-15T03:39:27.830Z,2.22
2023-03-15T03:44:30.684Z,2.28
2023-03-15T03:49:33.711Z,2.65
2023-03-15T03:54:36.273Z,2.42
2023-03-15T03:59:39.191Z,3.08
2023-03-15T04:04:42.592Z,2.67
2023-03-15T04:09:51.476Z,3.13
2023-03-15T04:14:54.866Z,3.85
2023-03-15T04:20:02.354Z,2.42
2023-03-15T04:25:07.810Z,2.72
2023-03-15T04:30:33.082Z,2.75
2023-03-15T04:35:44.013Z,2.08
2023-03-15T04:41:11.212Z,2.60
2023-03-15T04:46:37.401Z,2.25
2023-03-15T04:52:06.645Z,2.35
2023-03-15T04:57:35.692Z,2.22
2023-03-15T05:02:58.952Z,2.25
2023-03-15T05:08:27.857Z,2.35
2023-03-15T05:13:51.429Z,2.60
2023-03-15T05:19:22.120Z,2.53
2023-03-15T05:24:33.828Z,3.15
2023-03-15T05:29:51.512Z,2.70
2023-03-15T05:35:20.397Z,2.72
2023-03-15T05:40:34.395Z,3.15
2023-03-15T05:45:51.835Z,3.05
2023-03-15T05:51:20.942Z,2.75
2023-03-15T05:56:42.289Z,2.88
2023-03-15T06:01:51.090Z,2.92
2023-03-15T06:07:02.814Z,2.67
2023-03-15T06:12:08.821Z,3.20
2023-03-15T06:17:13.870Z,2.90
2023-03-15T06:22:21.163Z,2.83
2023-03-15T06:27:30.779Z,2.97
2023-03-15T06:32:34.669Z,2.70
2023-03-15T06:37:37.751Z,2.38
2023-03-15T06:42:42.001Z,2.85
2023-03-15T06:47:47.726Z,2.53
2023-03-15T06:52:52.048Z,2.30
2023-03-15T06:57:54.882Z,2.95
2023-03-15T07:02:57.607Z,3.10
2023-03-15T07:08:00.377Z,2.30
2023-03-15T07:13:03.147Z,2.90
2023-03-15T07:18:06.120Z,6.22
2023-03-15T07:23:08.843Z,2.97
2023-03-15T07:28:11.591Z,2.70
2023-03-15T07:33:14.322Z,2.70
2023-03-15T07:38:17.423Z,3.80
2023-03-15T07:43:20.509Z,2.30
2023-03-15T07:48:26.581Z,3.17
2023-03-15T07:53:29.306Z,2.35
2023-03-15T07:58:32.063Z,2.40
2023-03-15T08:03:34.567Z,2.90
2023-03-15T08:08:37.360Z,3.03
2023-03-15T08:13:40.036Z,2.95
2023-03-15T08:18:42.761Z,3.00
2023-03-15T08:23:45.470Z,3.13
2023-03-15T08:28:48.290Z,2.80
2023-03-15T08:33:51.115Z,2.60
2023-03-15T08:38:54.050Z,3.20
2023-03-15T08:43:56.736Z,2.97
2023-03-15T08:49:00.040Z,2.85
2023-03-15T08:54:04.324Z,2.90
2023-03-15T08:59:07.763Z,2.90
2023-03-15T09:04:10.514Z,2.90
2023-03-15T09:09:17.871Z,2.58
2023-03-15T09:14:20.590Z,2.72
2023-03-15T09:19:23.342Z,2.60
2023-03-15T09:24:26.165Z,2.72
2023-03-15T09:29:28.887Z,3.08
2023-03-15T09:34:39.927Z,3.72
2023-03-15T09:39:44.642Z,3.25
2023-03-15T09:45:06.631Z,2.72
2023-03-15T09:50:26.312Z,2.55
2023-03-15T09:55:29.347Z,2.70
2023-03-15T10:00:40.270Z,2.60
2023-03-15T10:05:45.137Z,3.08
2023-03-15T10:10:55.984Z,2.58
2023-03-15T10:16:05.496Z,2.47
2023-03-15T10:21:12.932Z,2.25
2023-03-15T10:26:19.335Z,2.22
2023-03-15T10:31:36.578Z,2.50
2023-03-15T10:36:49.378Z,2.40
2023-03-15T10:41:52.023Z,2.20
2023-03-15T10:47:21.392Z,2.20
2023-03-15T10:52:25.816Z,2.55
2023-03-15T10:57:29.351Z,2.70
2023-03-15T11:02:32.037Z,2.47
2023-03-15T11:07:35.657Z,2.42
2023-03-15T11:12:38.705Z,2.20
2023-03-15T11:17:47.697Z,2.30
2023-03-15T11:22:51.709Z,2.10
2023-03-15T11:27:54.617Z,2.15
2023-03-15T11:33:02.405Z,2.33
2023-03-15T11:38:15.418Z,1.70
2023-03-15T11:43:25.462Z,1.73
2023-03-15T11:48:31.259Z,2.05
2023-03-15T11:53:36.162Z,1.70
2023-03-15T11:58:44.486Z,1.70
2023-03-15T12:03:47.343Z,2.25
2023-03-15T12:08:54.454Z,1.80
2023-03-15T12:13:57.105Z,1.55
2023-03-15T12:19:01.497Z,1.70
2023-03-15T12:24:06.282Z,4.18
2023-03-15T12:29:23.265Z,1.35
2023-03-15T12:34:44.033Z,1.95
2023-03-15T12:39:48.191Z,2.05
2023-03-15T12:44:51.675Z,1.65
2023-03-15T12:49:54.433Z,1.48
2023-03-15T12:55:12.496Z,1.60
2023-03-15T13:00:17.159Z,1.10
2023-03-15T13:05:19.980Z,1.90
2023-03-15T13:10:40.332Z,1.30
2023-03-15T13:16:19.152Z,1.40
2023-03-15T13:21:26.837Z,2.20
2023-03-15T13:26:42.558Z,1.20
2023-03-15T13:31:46.695Z,1.35
2023-03-15T13:36:54.820Z,1.75
2023-03-15T13:42:17.038Z,1.58
2023-03-15T13:47:22.812Z,1.30
2023-03-15T13:52:25.738Z,1.50
2023-03-15T13:57:29.601Z,1.50
2023-03-15T14:02:38.079Z,1.42
2023-03-15T14:07:42.062Z,1.80
2023-03-15T14:12:45.354Z,1.77
2023-03-15T14:17:57.870Z,1.70
2023-03-15T14:23:01.463Z,1.80
2023-03-15T14:28:05.292Z,1.65
2023-03-15T14:33:23.960Z,1.50
2023-03-15T14:38:27.345Z,1.58
2023-03-15T14:43:30.138Z,1.75
2023-03-15T14:48:33.804Z,1.60
2023-03-15T14:53:37.667Z,1.40
2023-03-15T14:58:41.575Z,1.40
2023-03-15T15:03:46.712Z,1.65
2023-03-15T15:08:49.823Z,1.20
2023-03-15T15:13:52.602Z,1.58
2023-03-15T15:18:55.491Z,1.60
2023-03-15T15:23:59.432Z,1.15
2023-03-15T15:29:02.372Z,1.10
2023-03-15T15:34:05.556Z,1.08
2023-03-15T15:39:26.270Z,1.23
2023-03-15T15:44:28.987Z,0.90
2023-03-15T15:49:31.991Z,1.02
2023-03-15T15:54:36.046Z,1.13
2023-03-15T15:59:38.985Z,1.50
2023-03-15T16:04:42.562Z,1.25
2023-03-15T16:09:46.534Z,1.60
2023-03-15T16:14:49.316Z,1.50
2023-03-15T16:19:52.466Z,1.40
2023-03-15T16:24:57.310Z,1.85
2023-03-15T16:30:00.208Z,2.78
2023-03-15T16:35:04.268Z,1.67
2023-03-15T16:40:11.125Z,1.40
2023-03-15T16:45:14.352Z,1.50
2023-03-15T16:50:17.374Z,1.23
2023-03-15T16:55:23.437Z,1.58
2023-03-15T17:00:26.398Z,1.25
2023-03-15T17:05:29.090Z,1.50
2023-03-15T17:10:35.216Z,1.33
2023-03-15T17:15:38.154Z,1.20
2023-03-15T17:20:41.362Z,1.40
2023-03-15T17:25:44.268Z,1.38
2023-03-15T17:30:48.524Z,1.90
2023-03-15T17:35:58.588Z,1.60
2023-03-15T17:41:02.062Z,2.13
2023-03-15T17:46:04.811Z,2.33
2023-03-15T17:51:07.671Z,2.10
2023-03-15T17:56:10.645Z,1.70
2023-03-15T18:01:15.236Z,1.80
2023-03-15T18:06:19.149Z,1.90
2023-03-15T18:11:29.950Z,1.95
2023-03-15T18:16:32.987Z,2.10
2023-03-15T18:21:35.849Z,2.10
2023-03-15T18:26:38.595Z,1.80
2023-03-15T18:31:43.543Z,1.90
2023-03-15T18:36:46.351Z,2.00
2023-03-15T18:41:49.069Z,1.90
2023-03-15T18:46:54.325Z,1.88
2023-03-15T18:51:57.063Z,2.00
2023-03-15T18:56:59.854Z,2.20
2023-03-15T19:02:03.181Z,2.00
2023-03-15T19:07:06.700Z,2.00
2023-03-15T19:12:09.274Z,2.25
2023-03-15T19:17:12.464Z,2.20
2023-03-15T19:22:15.346Z,2.10
2023-03-15T19:27:18.166Z,1.98
2023-03-15T19:32:21.383Z,2.20
2023-03-15T19:37:24.615Z,2.50
2023-03-15T19:42:27.542Z,2.55
2023-03-15T19:47:30.276Z,2.42
2023-03-15T19:52:37.701Z,2.75
2023-03-15T19:57:40.738Z,2.35
2023-03-15T20:02:44.172Z,2.50
2023-03-15T20:07:50.969Z,2.88
2023-03-15T20:12:59.466Z,3.05
2023-03-15T20:18:04.249Z,2.28
2023-03-15T20:23:09.135Z,2.60
2023-03-15T20:28:11.988Z,2.28
2023-03-15T20:33:14.871Z,2.10
2023-03-15T20:38:17.991Z,2.40
2023-03-15T20:43:21.727Z,2.28
2023-03-15T20:48:25.562Z,2.90
2023-03-15T20:53:28.070Z,2.60
2023-03-15T20:58:31.285Z,2.40
2023-03-15T21:03:34.593Z,2.55
2023-03-15T21:08:37.800Z,2.60
2023-03-15T21:13:40.585Z,2.33
2023-03-15T21:18:45.197Z,2.17
2023-03-15T21:23:47.996Z,2.70
2023-03-15T21:28:51.495Z,2.50
2023-03-15T21:33:54.482Z,2.85
2023-03-15T21:38:57.224Z,3.42
2023-03-15T21:44:00.145Z,2.50
2023-03-15T21:49:03.186Z,2.33
2023-03-15T21:54:06.176Z,3.25
2023-03-15T21:59:09.099Z,2.55
2023-03-15T22:04:12.192Z,2.60
2023-03-15T22:09:14.930Z,2.65
2023-03-15T22:14:17.899Z,2.90
2023-03-15T22:19:20.706Z,2.92
2023-03-15T22:24:23.340Z,2.97
2023-03-15T22:29:28.841Z,2.63
2023-03-15T22:34:34.383Z,2.30
2023-03-15T22:39:37.077Z,2.45
2023-03-15T22:44:39.890Z,2.53
2023-03-15T22:49:42.778Z,2.60
2023-03-15T22:54:45.349Z,2.88
2023-03-15T22:59:48.385Z,3.53
2023-03-15T23:04:51.410Z,3.33
2023-03-15T23:09:54.258Z,3.17
2023-03-15T23:14:57.155Z,3.78
2023-03-15T23:20:00.194Z,3.00
2023-03-15T23:25:03.289Z,2.95
2023-03-15T23:30:06.247Z,3.45
2023-03-15T23:35:10.198Z,3.00
2023-03-15T23:40:15.643Z,3.03
2023-03-15T23:45:18.741Z,3.17
2023-03-15T23:50:22.433Z,2.88
2023-03-15T23:55:25.383Z,2.70
